Time;durP1;ratioP1;P1;durP2;ratioP2;P2;SDS_P1;SDS_P2;PMS_P1;PMS_P2;Temp;Humidity;BMP_temperature;BMP_pressure;BME280_temperature;BME280_humidity;BME280_pressure;Samples;Min_cycle;Max_cycle;Signal;HPM_P1;HPM_P2
2023/07/03 00:00:47;;;;;;;16.08;5.60;;;;;;;15.04;63.81;100861.38;5051870;28;20021;-70
2023/07/03 00:03:15;;;;;;;11.20;4.25;;;;;;;15.07;63.49;100857.66;5057094;28;20023;-74
2023/07/03 00:05:43;;;;;;;10.95;4.40;;;;;;;15.06;63.98;100861.28;5053986;28;20127;-72
2023/07/03 00:08:11;;;;;;;10.77;4.53;;;;;;;15.00;64.37;100846.47;5055105;28;20212;-73
2023/07/03 00:10:37;;;;;;;11.18;5.00;;;;;;;14.98;64.50;100853.78;5058897;28;20260;-72
2023/07/03 00:13:03;;;;;;;15.02;4.50;;;;;;;14.92;64.76;100855.06;5053011;28;20461;-74
2023/07/03 00:15:28;;;;;;;17.10;4.97;;;;;;;14.91;65.31;100852.47;5056561;28;20118;-73
2023/07/03 00:17:53;;;;;;;16.45;4.93;;;;;;;14.93;65.04;100862.13;5060284;28;21485;-74
2023/07/03 00:20:19;;;;;;;10.40;4.85;;;;;;;14.97;65.05;100861.94;5054172;28;20060;-72
2023/07/03 00:22:46;;;;;;;9.93;4.43;;;;;;;14.97;64.81;100859.25;5059202;28;20275;-72
2023/07/03 00:25:12;;;;;;;12.80;4.20;;;;;;;14.99;65.10;100857.31;5056604;28;20036;-74
2023/07/03 00:27:37;;;;;;;14.32;4.90;;;;;;;15.01;65.10;100858.94;5050463;28;20461;-73
2023/07/03 00:30:04;;;;;;;14.27;5.00;;;;;;;15.00;65.40;100857.19;5055538;28;20029;-70
2023/07/03 00:32:29;;;;;;;12.30;4.82;;;;;;;14.99;65.46;100857.31;5060057;28;20135;-71
2023/07/03 00:34:55;;;;;;;14.75;5.00;;;;;;;14.98;65.31;100851.09;5059221;28;20024;-72
2023/07/03 00:37:23;;;;;;;12.70;4.05;;;;;;;14.94;65.28;100847.78;5059113;28;20032;-71
2023/07/03 00:39:48;;;;;;;14.52;5.63;;;;;;;14.97;65.97;100845.84;5056028;28;20099;-72
2023/07/03 00:42:13;;;;;;;14.30;4.78;;;;;;;14.93;65.99;100839.84;5058210;28;20577;-72
2023/07/03 00:44:39;;;;;;;15.00;5.07;;;;;;;14.92;66.17;100843.47;5052773;28;20039;-69
2023/07/03 00:47:05;;;;;;;14.55;4.63;;;;;;;14.89;66.49;100844.56;5051584;28;20029;-70
2023/07/03 00:49:31;;;;;;;12.65;4.65;;;;;;;14.92;66.41;100851.50;5058434;28;20024;-69
2023/07/03 00:51:57;;;;;;;13.48;4.22;;;;;;;14.91;66.46;100847.97;5057229;28;20767;-71
2023/07/03 00:54:23;;;;;;;12.73;4.82;;;;;;;14.84;66.81;100841.34;5056797;28;20023;-69
2023/07/03 00:56:48;;;;;;;12.63;4.25;;;;;;;14.76;67.16;100832.13;5056131;28;20024;-71
2023/07/03 00:59:15;;;;;;;12.10;4.57;;;;;;;14.74;67.59;100837.56;5055872;28;20441;-71
2023/07/03 01:01:43;;;;;;;14.23;4.85;;;;;;;14.74;67.86;100840.25;5058288;28;20044;-71
2023/07/03 01:04:17;;;;;;;15.13;4.95;;;;;;;14.72;68.04;100839.50;5057726;28;20033;-70
2023/07/03 01:07:00;;;;;;;11.52;4.10;;;;;;;14.77;68.16;100834.69;5060726;28;20029;-70
2023/07/03 01:09:35;;;;;;;15.70;5.18;;;;;;;14.74;68.40;100834.88;5060221;28;20035;-71
2023/07/03 01:12:03;;;;;;;16.70;4.55;;;;;;;14.74;68.76;100842.91;5060308;28;20540;-70
2023/07/03 01:14:30;;;;;;;15.50;5.53;;;;;;;14.74;68.44;100834.03;5056093;28;20024;-70
2023/07/03 01:16:58;;;;;;;13.85;4.60;;;;;;;14.70;69.28;100833.38;5055208;28;20070;-74
2023/07/03 01:19:30;;;;;;;18.00;4.78;;;;;;;14.69;69.16;100835.19;5058590;28;20028;-71
2023/07/03 01:22:29;;;;;;;18.00;5.30;;;;;;;14.67;69.24;100828.22;5057441;28;20506;-72
2023/07/03 01:24:59;;;;;;;15.55;5.78;;;;;;;14.64;69.76;100844.53;5053885;28;20303;-71
2023/07/03 01:27:31;;;;;;;17.55;4.88;;;;;;;14.65;70.14;100830.16;5049383;28;20492;-69
2023/07/03 01:29:58;;;;;;;14.65;5.28;;;;;;;14.61;70.51;100837.53;5055018;28;20025;-72
2023/07/03 01:32:29;;;;;;;15.63;5.78;;;;;;;14.60;70.86;100834.97;5054464;28;20070;-71
2023/07/03 01:34:56;;;;;;;16.08;4.95;;;;;;;14.64;70.63;100833.81;5057620;28;20111;-72
2023/07/03 01:37:25;;;;;;;16.98;4.55;;;;;;;14.59;71.14;100827.88;5058295;28;20120;-72
2023/07/03 01:39:52;;;;;;;14.45;4.70;;;;;;;14.55;71.51;100829.06;5044887;28;20098;-70
2023/07/03 01:42:21;;;;;;;17.05;5.20;;;;;;;14.47;71.74;100829.56;5059224;28;20086;-70
2023/07/03 01:44:49;;;;;;;19.38;5.60;;;;;;;14.47;72.07;100831.38;5056681;28;20029;-69
2023/07/03 01:47:15;;;;;;;17.67;5.55;;;;;;;14.41;72.80;100828.13;5060808;28;20487;-71
2023/07/03 01:49:40;;;;;;;17.10;5.15;;;;;;;14.36;73.03;100835.63;5057416;28;20114;-70
2023/07/03 01:52:06;;;;;;;16.60;5.53;;;;;;;14.37;73.14;100833.78;5057739;28;20395;-72
2023/07/03 01:54:52;;;;;;;16.23;5.18;;;;;;;14.32;73.58;100833.25;5057297;28;20505;-72
2023/07/03 01:57:56;;;;;;;14.10;4.85;;;;;;;14.37;73.34;100826.63;5053567;28;20067;-72
2023/07/03 02:00:40;;;;;;;20.88;5.55;;;;;;;14.21;74.65;100825.91;5027623;28;20052;-70
2023/07/03 02:03:15;;;;;;;17.13;5.40;;;;;;;14.20;75.24;100824.22;5020996;28;20071;-73
2023/07/03 02:05:41;;;;;;;18.52;5.70;;;;;;;14.21;75.65;100825.91;5032927;28;20083;-71
2023/07/03 02:08:08;;;;;;;19.75;5.95;;;;;;;14.18;76.28;100831.50;5032904;28;20686;-73
2023/07/03 02:10:33;;;;;;;17.40;5.10;;;;;;;14.13;76.71;100814.88;5036985;28;20088;-74
2023/07/03 02:12:59;;;;;;;20.40;5.57;;;;;;;14.13;77.21;100822.91;5028289;28;20067;-70
2023/07/03 02:15:24;;;;;;;17.80;5.40;;;;;;;14.14;77.46;100812.09;5036430;28;20176;-72
2023/07/03 02:17:54;;;;;;;16.98;5.60;;;;;;;14.13;78.10;100817.56;5026207;28;20578;-73
2023/07/03 02:20:20;;;;;;;21.23;5.68;;;;;;;14.12;78.60;100815.81;5036420;28;20055;-73
2023/07/03 02:22:49;;;;;;;19.88;5.80;;;;;;;14.06;78.68;100805.53;5032454;28;20053;-71
2023/07/03 02:25:16;;;;;;;23.23;6.25;;;;;;;14.03;79.48;100822.66;5038530;28;20041;-71
2023/07/03 02:27:44;;;;;;;20.17;6.18;;;;;;;14.02;79.82;100814.72;5035424;28;20040;-72
2023/07/03 02:30:11;;;;;;;20.25;6.45;;;;;;;13.97;80.47;100823.06;5025510;28;20076;-72
2023/07/03 02:32:39;;;;;;;21.23;6.35;;;;;;;13.90;80.84;100811.88;5033400;28;20040;-73
2023/07/03 02:35:06;;;;;;;21.30;6.20;;;;;;;13.89;81.16;100814.66;5038349;28;20033;-72
2023/07/03 02:37:32;;;;;;;19.52;6.35;;;;;;;13.84;81.69;100814.97;5058796;28;20365;-72
2023/07/03 02:39:57;;;;;;;23.95;6.55;;;;;;;13.83;82.11;100807.88;5057775;28;20085;-70
2023/07/03 02:42:23;;;;;;;22.42;6.75;;;;;;;13.80;82.66;100813.47;5061003;28;20048;-72
2023/07/03 02:44:49;;;;;;;22.23;6.70;;;;;;;13.78;82.99;100806.47;5057641;28;20541;-70
2023/07/03 02:47:14;;;;;;;22.25;6.55;;;;;;;13.78;83.50;100801.97;5062008;28;20036;-71
2023/07/03 02:49:40;;;;;;;19.92;6.47;;;;;;;13.74;83.70;100808.47;5063348;28;20107;-72
2023/07/03 02:52:05;;;;;;;19.80;5.60;;;;;;;13.70;84.48;100809.63;5062313;28;20094;-72
2023/07/03 02:54:31;;;;;;;21.42;6.63;;;;;;;13.69;84.73;100802.59;5064476;28;20029;-72
2023/07/03 02:56:56;;;;;;;17.98;6.05;;;;;;;13.66;85.51;100800.09;5063168;28;20146;-72
2023/07/03 02:59:22;;;;;;;21.00;6.18;;;;;;;13.61;85.64;100796.88;5061571;28;20028;-70
2023/07/03 03:01:49;;;;;;;24.45;7.60;;;;;;;13.55;86.44;100802.63;5059561;28;20047;-72
2023/07/03 03:04:16;;;;;;;19.95;6.53;;;;;;;13.58;86.18;100789.03;5061368;28;20036;-72
2023/07/03 03:06:42;;;;;;;21.38;5.72;;;;;;;13.51;86.94;100798.44;5063613;28;20019;-72
2023/07/03 03:09:08;;;;;;;18.58;6.35;;;;;;;13.51;86.85;100796.59;5060198;28;20032;-74
2023/07/03 03:11:34;;;;;;;20.52;7.55;;;;;;;13.49;87.40;100789.63;5061503;28;20282;-73
2023/07/03 03:14:00;;;;;;;19.85;7.03;;;;;;;13.43;88.10;100797.09;5060865;28;20020;-71
2023/07/03 03:16:25;;;;;;;16.95;6.38;;;;;;;13.47;88.20;100787.06;5060704;28;20056;-73
2023/07/03 03:18:50;;;;;;;22.95;7.93;;;;;;;13.51;88.30;100790.41;5061811;28;20497;-74
2023/07/03 03:21:16;;;;;;;24.55;7.22;;;;;;;13.52;88.34;100795.63;5056864;28;20052;-71
2023/07/03 03:23:41;;;;;;;22.42;6.63;;;;;;;13.51;88.54;100780.56;5062967;28;20024;-73
2023/07/03 03:26:07;;;;;;;16.67;5.82;;;;;;;13.49;89.00;100784.28;5059954;28;20262;-74
2023/07/03 03:28:33;;;;;;;23.40;6.93;;;;;;;13.50;89.22;100791.34;5057319;28;20579;-71
2023/07/03 03:30:59;;;;;;;24.95;7.35;;;;;;;13.50;89.35;100786.00;5056267;28;20186;-74
2023/07/03 03:33:24;;;;;;;24.05;6.93;;;;;;;13.54;89.30;100783.00;5056305;28;20306;-73
2023/07/03 03:35:50;;;;;;;25.95;6.80;;;;;;;13.54;89.71;100785.69;5054475;28;20317;-74
2023/07/03 03:38:15;;;;;;;17.77;6.30;;;;;;;13.55;89.90;100786.56;5056876;28;20479;-71
2023/07/03 03:40:52;;;;;;;22.95;6.45;;;;;;;13.52;90.27;100795.63;5056119;28;20107;-74
2023/07/03 03:43:17;;;;;;;24.08;6.20;;;;;;;13.55;90.28;100797.28;5054359;28;20028;-72
2023/07/03 03:45:43;;;;;;;22.13;7.53;;;;;;;13.52;90.79;100789.44;5055399;28;20060;-73
2023/07/03 03:48:08;;;;;;;26.13;7.32;;;;;;;13.53;90.82;100783.13;5054866;28;20051;-72
2023/07/03 03:50:33;;;;;;;22.15;6.47;;;;;;;13.53;91.00;100792.00;5058167;28;20035;-74
2023/07/03 03:52:59;;;;;;;29.45;7.07;;;;;;;13.53;91.34;100788.47;5051019;28;20158;-73
2023/07/03 03:55:24;;;;;;;28.85;7.57;;;;;;;13.51;91.53;100785.06;5061267;28;20033;-70
2023/07/03 03:57:50;;;;;;;25.60;7.15;;;;;;;13.52;91.78;100782.28;5057339;28;20889;-72
2023/07/03 04:00:16;;;;;;;21.27;6.53;;;;;;;13.56;92.12;100785.63;5062222;28;20032;-70
2023/07/03 04:02:43;;;;;;;19.88;7.15;;;;;;;13.55;92.34;100786.56;5060572;28;20028;-73
2023/07/03 04:05:08;;;;;;;24.00;7.18;;;;;;;13.59;92.20;100801.47;5055636;28;20033;-69
2023/07/03 04:07:34;;;;;;;18.33;7.03;;;;;;;13.64;92.51;100788.66;5060592;28;20501;-69
2023/07/03 04:09:59;;;;;;;25.52;7.65;;;;;;;13.67;92.22;100800.03;5058103;28;20113;-72
2023/07/03 04:12:24;;;;;;;22.08;7.45;;;;;;;13.71;91.60;100800.69;5057424;28;20017;-70
2023/07/03 04:14:51;;;;;;;23.42;7.47;;;;;;;13.72;91.95;100797.03;5061494;28;20009;-72
2023/07/03 04:17:16;;;;;;;19.98;6.95;;;;;;;13.69;92.12;100795.41;5060691;28;20028;-70
2023/07/03 04:19:41;;;;;;;24.27;6.80;;;;;;;13.62;92.58;100791.41;5054530;28;20398;-73
2023/07/03 04:22:07;;;;;;;21.00;6.88;;;;;;;13.64;92.79;100791.31;5051391;28;20056;-71
2023/07/03 04:24:34;;;;;;;25.23;7.07;;;;;;;13.65;92.37;100793.88;5059883;28;20102;-69
2023/07/03 04:27:00;;;;;;;26.25;7.13;;;;;;;13.60;93.19;100790.66;5059386;28;20121;-70
2023/07/03 04:29:25;;;;;;;25.10;7.00;;;;;;;13.59;93.18;100791.63;5061420;28;20498;-71
2023/07/03 04:31:50;;;;;;;25.15;7.43;;;;;;;13.56;93.51;100797.16;5054112;28;20412;-72
2023/07/03 04:34:16;;;;;;;24.52;7.10;;;;;;;13.61;93.60;100794.19;5055327;28;20028;-71
2023/07/03 04:36:41;;;;;;;25.20;7.07;;;;;;;13.67;93.94;100789.31;5056057;28;20024;-72
2023/07/03 04:39:07;;;;;;;21.55;7.13;;;;;;;13.74;93.58;100794.25;5060748;28;20544;-71
2023/07/03 04:41:33;;;;;;;21.98;7.78;;;;;;;13.83;93.20;100793.66;5059301;28;20035;-72
2023/07/03 04:44:00;;;;;;;23.05;7.63;;;;;;;13.91;92.26;100791.34;5060693;28;20437;-73
2023/07/03 04:46:27;;;;;;;24.45;7.05;;;;;;;14.00;92.26;100789.88;5058161;28;20028;-72
2023/07/03 04:48:59;;;;;;;21.60;6.82;;;;;;;14.04;91.90;100788.72;5061033;28;20024;-72
2023/07/03 04:51:24;;;;;;;25.02;7.60;;;;;;;14.09;91.44;100806.19;5054488;28;20037;-71
2023/07/03 04:53:50;;;;;;;23.17;6.80;;;;;;;14.20;91.08;100805.47;5059437;28;20100;-70
2023/07/03 04:56:15;;;;;;;23.40;6.80;;;;;;;14.27;90.07;100798.75;5059786;28;20020;-72
2023/07/03 04:58:41;;;;;;;25.08;8.52;;;;;;;14.36;89.59;100802.63;5060698;28;20024;-71
2023/07/03 05:01:11;;;;;;;23.83;7.32;;;;;;;14.44;89.37;100805.66;5056720;28;20036;-72
2023/07/03 05:03:37;;;;;;;23.73;6.72;;;;;;;14.38;91.38;100804.25;5056810;28;20101;-72
2023/07/03 05:06:02;;;;;;;23.50;7.20;;;;;;;14.14;92.06;100809.44;5058334;28;20392;-72
2023/07/03 05:08:27;;;;;;;24.15;7.15;;;;;;;14.06;92.59;100811.75;5060312;28;20028;-72
2023/07/03 05:10:53;;;;;;;16.23;6.13;;;;;;;14.14;92.98;100821.94;5060245;28;20028;-73
2023/07/03 05:13:19;;;;;;;22.10;7.15;;;;;;;14.17;91.61;100811.91;5051899;28;20054;-72
2023/07/03 05:15:44;;;;;;;25.08;6.78;;;;;;;14.25;91.76;100819.41;5055783;28;20371;-73
2023/07/03 05:18:09;;;;;;;26.42;7.43;;;;;;;14.34;91.57;100823.31;5057203;28;20558;-71
2023/07/03 05:20:35;;;;;;;22.30;7.22;;;;;;;14.44;90.77;100817.22;5059688;28;20033;-74
2023/07/03 05:23:00;;;;;;;23.50;7.00;;;;;;;14.55;89.97;100821.03;5056046;28;20048;-72
2023/07/03 05:25:25;;;;;;;24.92;6.63;;;;;;;14.65;88.35;100820.28;5056044;28;20067;-71
2023/07/03 05:27:51;;;;;;;19.42;7.07;;;;;;;14.76;87.73;100824.06;5056495;28;20085;-71
2023/07/03 05:30:19;;;;;;;20.88;7.22;;;;;;;14.85;87.83;100832.34;5057147;28;20029;-70
2023/07/03 05:32:46;;;;;;;25.02;7.88;;;;;;;15.01;86.88;100831.28;5055793;28;20029;-73
2023/07/03 05:35:11;;;;;;;23.67;7.05;;;;;;;15.03;86.29;100829.34;5058789;28;20040;-72
2023/07/03 05:37:37;;;;;;;23.52;6.72;;;;;;;15.07;86.54;100838.88;5055532;28;20880;-72
2023/07/03 05:40:06;;;;;;;21.25;7.15;;;;;;;15.15;85.57;100842.75;5051751;28;20097;-72
2023/07/03 05:42:32;;;;;;;21.95;6.47;;;;;;;15.19;85.44;100840.69;5054404;28;20051;-73
2023/07/03 05:44:57;;;;;;;21.02;7.00;;;;;;;15.19;85.00;100832.66;5057591;28;20036;-73
2023/07/03 05:47:23;;;;;;;22.88;7.05;;;;;;;15.18;84.45;100836.31;5060286;28;20117;-73
2023/07/03 05:49:49;;;;;;;17.95;6.38;;;;;;;15.21;84.27;100841.44;5055752;28;20035;-71
2023/07/03 05:52:15;;;;;;;17.60;6.18;;;;;;;15.23;84.33;100842.22;5058909;28;20471;-73
2023/07/03 05:54:40;;;;;;;18.35;6.43;;;;;;;15.19;83.63;100836.19;5058392;28;20162;-71
2023/07/03 05:57:09;;;;;;;21.85;7.47;;;;;;;15.16;84.62;100836.41;5054483;28;20039;-73
2023/07/03 05:59:36;;;;;;;17.85;5.97;;;;;;;15.42;83.76;100845.31;5053473;28;20029;-73
2023/07/03 06:02:05;;;;;;;17.98;6.22;;;;;;;15.55;83.08;100844.41;5054456;28;20020;-72
2023/07/03 06:04:30;;;;;;;17.75;6.32;;;;;;;15.53;81.94;100846.34;5053288;28;20114;-71
2023/07/03 06:06:56;;;;;;;14.70;6.25;;;;;;;15.51;82.01;100841.13;5052415;28;20067;-73
2023/07/03 06:09:25;;;;;;;17.00;5.72;;;;;;;15.40;82.66;100844.56;5060321;28;20541;-71
2023/07/03 06:11:51;;;;;;;24.58;6.78;;;;;;;15.39;82.79;100844.66;5058476;28;20029;-72
2023/07/03 06:14:20;;;;;;;21.77;6.68;;;;;;;15.49;83.51;100856.44;5064468;28;20089;-70
2023/07/03 06:16:48;;;;;;;17.48;6.60;;;;;;;15.65;82.63;100851.72;5058619;28;20035;-73
2023/07/03 06:19:15;;;;;;;18.70;6.78;;;;;;;15.95;80.31;100847.78;5062859;28;20096;-72
2023/07/03 06:21:41;;;;;;;18.38;6.05;;;;;;;16.23;78.91;100835.88;5057826;28;20105;-71
2023/07/03 06:24:09;;;;;;;15.85;6.30;;;;;;;16.68;78.44;100838.75;5058528;28;20033;-72
2023/07/03 06:26:35;;;;;;;19.98;6.28;;;;;;;16.90;75.61;100838.84;5056764;28;20608;-71
2023/07/03 06:29:03;;;;;;;19.33;6.82;;;;;;;17.03;74.64;100846.81;5058024;28;20074;-73
2023/07/03 06:31:29;;;;;;;16.38;5.80;;;;;;;17.26;74.04;100841.44;5062099;28;20059;-70
2023/07/03 06:33:54;;;;;;;19.85;5.80;;;;;;;17.37;72.46;100842.31;5062121;28;20021;-73
2023/07/03 06:36:21;;;;;;;20.77;6.32;;;;;;;17.32;72.84;100851.75;5055327;28;20029;-70
2023/07/03 06:38:54;;;;;;;19.38;6.00;;;;;;;17.22;71.78;100851.59;5056244;28;20033;-71
2023/07/03 06:41:20;;;;;;;20.92;5.70;;;;;;;17.22;72.54;100854.28;5061031;28;20049;-75
2023/07/03 06:43:46;;;;;;;13.57;5.90;;;;;;;17.10;71.86;100842.66;5061018;28;20117;-71
2023/07/03 06:46:11;;;;;;;16.42;5.72;;;;;;;17.09;71.80;100845.47;5062326;28;20052;-73
2023/07/03 06:48:37;;;;;;;22.52;6.28;;;;;;;17.04;72.21;100844.97;5061464;28;20338;-70
2023/07/03 06:51:05;;;;;;;19.35;6.53;;;;;;;16.96;72.17;100847.41;5060055;28;20024;-69
2023/07/03 06:53:30;;;;;;;20.60;6.10;;;;;;;16.93;72.24;100843.97;5061986;28;20024;-71
2023/07/03 06:55:57;;;;;;;16.30;5.82;;;;;;;16.88;72.58;100846.16;5060015;28;20073;-70
2023/07/03 06:58:23;;;;;;;18.33;6.05;;;;;;;16.86;72.26;100845.44;5058301;28;20036;-74
2023/07/03 07:00:49;;;;;;;15.45;5.80;;;;;;;16.92;72.01;100850.31;5058759;28;20038;-72
2023/07/03 07:03:14;;;;;;;19.15;6.03;;;;;;;16.95;71.89;100845.69;5059500;28;20029;-73
2023/07/03 07:05:39;;;;;;;15.50;5.60;;;;;;;17.03;71.28;100837.88;5062506;28;20122;-72
2023/07/03 07:08:05;;;;;;;17.20;5.57;;;;;;;17.11;70.80;100838.16;5056511;28;20036;-71
2023/07/03 07:10:30;;;;;;;15.10;5.43;;;;;;;17.05;69.91;100841.28;5058034;28;20029;-73
2023/07/03 07:12:56;;;;;;;15.23;5.03;;;;;;;17.16;69.20;100849.38;5061112;28;20552;-71
2023/07/03 07:15:21;;;;;;;16.58;5.47;;;;;;;17.11;69.67;100863.19;5057817;28;20291;-71
2023/07/03 07:17:46;;;;;;;14.55;5.70;;;;;;;17.21;70.76;100862.47;5077381;28;20483;-72
2023/07/03 07:20:12;;;;;;;17.13;5.80;;;;;;;17.34;69.75;100861.38;5060362;28;20040;-71
2023/07/03 07:22:37;;;;;;;15.45;4.93;;;;;;;18.07;67.54;100859.19;5060804;28;20105;-73
2023/07/03 07:25:03;;;;;;;18.65;5.53;;;;;;;18.70;63.40;100859.34;5057184;28;20021;-72
2023/07/03 07:27:28;;;;;;;17.98;5.43;;;;;;;18.73;62.35;100854.56;5056766;28;20356;-70
2023/07/03 07:29:54;;;;;;;13.75;4.80;;;;;;;18.45;62.84;100856.00;5056704;28;20028;-72
2023/07/03 07:32:21;;;;;;;11.60;4.80;;;;;;;18.19;62.67;100854.63;5062051;28;20063;-71
2023/07/03 07:34:47;;;;;;;15.95;4.95;;;;;;;18.07;63.29;100869.94;5057838;28;20024;-72
2023/07/03 07:37:13;;;;;;;17.90;5.75;;;;;;;18.07;64.09;100867.25;5057984;28;20044;-71
2023/07/03 07:39:42;;;;;;;13.98;5.03;;;;;;;18.22;62.42;100876.75;5058134;28;20116;-70
2023/07/03 07:42:07;;;;;;;16.65;5.65;;;;;;;18.47;61.66;100867.50;5057696;28;20070;-71
2023/07/03 07:44:33;;;;;;;15.02;5.68;;;;;;;18.76;61.42;100854.28;5064909;28;20056;-71
2023/07/03 07:46:59;;;;;;;17.52;5.25;;;;;;;18.66;60.32;100867.66;5061457;28;20037;-70
2023/07/03 07:49:24;;;;;;;13.57;5.10;;;;;;;18.58;60.04;100859.38;5061243;28;20289;-71
2023/07/03 07:51:50;;;;;;;14.27;5.03;;;;;;;18.91;60.53;100857.53;5062637;28;20020;-71
2023/07/03 07:54:15;;;;;;;10.95;5.00;;;;;;;20.12;57.32;100868.47;5062277;28;20024;-73
2023/07/03 07:56:41;;;;;;;12.20;4.57;;;;;;;20.70;52.86;100860.44;5057393;28;20437;-72
2023/07/03 07:59:06;;;;;;;12.88;4.43;;;;;;;20.72;51.84;100865.69;5068124;28;20046;-72
2023/07/03 08:01:32;;;;;;;12.35;4.60;;;;;;;20.37;52.45;100881.47;5056069;28;20325;-74
2023/07/03 08:03:57;;;;;;;14.50;5.25;;;;;;;20.39;52.30;100878.59;5055827;28;20447;-72
2023/07/03 08:06:22;;;;;;;14.90;4.55;;;;;;;20.81;51.64;100879.22;5058488;28;20024;-73
2023/07/03 08:08:50;;;;;;;11.52;4.72;;;;;;;20.70;50.07;100876.69;5053876;28;20422;-71
2023/07/03 08:11:15;;;;;;;12.45;4.15;;;;;;;20.31;51.12;100875.75;5056337;28;20398;-73
2023/07/03 08:13:41;;;;;;;14.60;4.43;;;;;;;19.80;51.72;100888.41;5061103;28;20023;-73
2023/07/03 08:16:09;;;;;;;15.77;4.70;;;;;;;19.60;53.03;100883.91;5054608;28;20043;-71
2023/07/03 08:18:34;;;;;;;11.48;4.70;;;;;;;19.58;53.37;100885.88;5057045;28;20051;-72
2023/07/03 08:21:00;;;;;;;11.52;4.65;;;;;;;19.51;52.89;100896.34;5058840;28;20056;-73
2023/07/03 08:23:25;;;;;;;15.70;4.47;;;;;;;19.43;53.38;100904.28;5052510;28;20359;-70
2023/07/03 08:25:53;;;;;;;13.05;4.57;;;;;;;19.35;54.33;100909.47;5056141;28;20048;-71
2023/07/03 08:28:21;;;;;;;14.15;4.90;;;;;;;19.15;54.27;100903.13;5049541;28;20069;-73
2023/07/03 08:30:46;;;;;;;11.55;4.53;;;;;;;19.05;54.31;100904.88;5057834;28;20490;-71
2023/07/03 08:33:13;;;;;;;12.68;4.13;;;;;;;18.89;54.09;100895.44;5057187;28;20025;-72
2023/07/03 08:35:39;;;;;;;12.85;4.60;;;;;;;18.94;54.73;100886.09;5057279;28;20151;-71
2023/07/03 08:38:05;;;;;;;16.77;4.68;;;;;;;19.05;55.02;100894.09;5060602;28;20036;-72
2023/07/03 08:40:31;;;;;;;16.38;4.80;;;;;;;19.11;54.34;100907.06;5063427;28;20130;-72
2023/07/03 08:42:59;;;;;;;10.93;4.15;;;;;;;19.45;54.15;100914.94;5058159;28;20476;-73
2023/07/03 08:45:46;;;;;;;14.73;4.95;;;;;;;20.18;53.18;100905.75;5065787;28;20035;-70
2023/07/03 08:48:19;;;;;;;13.88;4.07;;;;;;;20.58;51.12;100913.81;5057080;28;20024;-70
2023/07/03 08:50:49;;;;;;;15.50;4.53;;;;;;;20.52;50.13;100902.69;5058609;28;20028;-72
2023/07/03 08:53:19;;;;;;;11.68;4.32;;;;;;;20.54;49.72;100906.97;5056928;28;21277;-73
2023/07/03 08:55:56;;;;;;;13.57;4.50;;;;;;;21.16;49.04;100902.13;5061552;28;20040;-72
2023/07/03 08:58:22;;;;;;;11.88;4.28;;;;;;;21.48;46.65;100907.19;5052547;28;20040;-70
2023/07/03 09:01:11;;;;;;;11.13;4.05;;;;;;;22.00;47.00;100898.59;5050346;28;20032;-71
2023/07/03 09:04:13;;;;;;;11.80;4.70;;;;;;;21.41;47.36;100902.53;5057286;28;20036;-73
2023/07/03 09:07:07;;;;;;;17.48;5.13;;;;;;;21.20;48.83;100903.53;5053128;28;20176;-72
2023/07/03 09:09:50;;;;;;;13.95;4.35;;;;;;;22.44;44.94;100898.75;5053544;28;20119;-70
2023/07/03 09:12:38;;;;;;;17.07;5.23;;;;;;;23.21;44.96;100900.00;5059876;28;20058;-72
2023/07/03 09:15:31;;;;;;;10.43;4.38;;;;;;;23.89;42.17;100900.09;5053024;28;20286;-70
2023/07/03 09:17:59;;;;;;;13.60;4.72;;;;;;;22.65;41.92;100902.03;5063267;28;20233;-73
2023/07/03 09:20:27;;;;;;;12.07;4.40;;;;;;;21.94;43.60;100899.16;5058989;28;20486;-73
2023/07/03 09:23:02;;;;;;;13.85;4.82;;;;;;;21.86;44.78;100898.09;5056535;28;20040;-71
2023/07/03 09:25:38;;;;;;;13.75;5.07;;;;;;;23.03;43.64;100897.31;5057578;28;20032;-73
2023/07/03 09:28:05;;;;;;;13.75;4.85;;;;;;;24.18;40.09;100899.69;5058553;28;20491;-72
2023/07/03 09:30:33;;;;;;;12.15;4.82;;;;;;;24.19;39.14;100897.81;5058870;28;20063;-70
2023/07/03 09:32:59;;;;;;;10.93;4.00;;;;;;;25.00;37.97;100891.69;5055326;28;20035;-71
2023/07/03 09:35:34;;;;;;;10.07;4.45;;;;;;;26.17;36.66;100896.53;5056311;28;20115;-73
2023/07/03 09:38:01;;;;;;;10.90;4.07;;;;;;;26.17;34.60;100901.09;5056878;28;20033;-72
2023/07/03 09:40:33;;;;;;;10.07;4.15;;;;;;;24.88;36.68;100901.22;5056010;28;20020;-72
2023/07/03 09:43:00;;;;;;;10.32;5.05;;;;;;;24.51;36.86;100905.25;5056836;28;20035;-72
2023/07/03 09:45:33;;;;;;;9.98;3.92;;;;;;;24.35;38.00;100904.16;5062613;28;20040;-73
2023/07/03 09:48:10;;;;;;;12.32;4.55;;;;;;;25.58;36.08;100893.31;5064049;28;20034;-72
2023/07/03 09:50:37;;;;;;;9.88;3.97;;;;;;;25.74;35.15;100903.31;5066918;28;20020;-73
2023/07/03 09:53:04;;;;;;;10.98;4.40;;;;;;;25.45;35.53;100901.16;5063583;28;20028;-72
2023/07/03 09:55:29;;;;;;;9.88;4.53;;;;;;;24.51;37.27;100913.41;5059474;28;20501;-71
2023/07/03 09:57:55;;;;;;;13.02;4.50;;;;;;;23.35;38.46;100897.53;5059097;28;20020;-70
2023/07/03 10:00:23;;;;;;;13.35;5.28;;;;;;;22.23;40.20;100902.59;5062831;28;20439;-70
2023/07/03 10:02:56;;;;;;;12.95;5.32;;;;;;;22.34;41.20;100918.66;5055952;28;20117;-70
2023/07/03 10:05:31;;;;;;;9.82;4.63;;;;;;;22.83;41.16;100919.19;5059317;28;20025;-69
2023/07/03 10:08:01;;;;;;;10.30;4.25;;;;;;;25.20;36.97;100903.09;5064848;28;20461;-72
2023/07/03 10:10:29;;;;;;;10.10;4.50;;;;;;;26.39;33.23;100897.59;5063878;28;20487;-72
2023/07/03 10:13:11;;;;;;;13.98;4.68;;;;;;;25.04;34.72;100898.47;5061844;28;20040;-72
2023/07/03 10:15:40;;;;;;;10.32;4.13;;;;;;;23.58;37.18;100910.59;5058448;28;20032;-72
2023/07/03 10:18:12;;;;;;;13.30;4.30;;;;;;;23.49;37.82;100925.13;5061491;28;20395;-71
2023/07/03 10:20:46;;;;;;;10.95;3.78;;;;;;;23.74;38.06;100918.00;5062267;28;20020;-70
2023/07/03 10:23:19;;;;;;;8.93;4.07;;;;;;;23.36;36.82;100920.13;5048454;28;20508;-71
2023/07/03 10:26:04;;;;;;;11.80;4.45;;;;;;;25.31;34.80;100914.47;5065171;28;20201;-71
2023/07/03 10:28:39;;;;;;;14.70;5.15;;;;;;;27.53;31.01;100914.97;5061109;28;20036;-70
2023/07/03 10:31:13;;;;;;;10.80;4.00;;;;;;;28.35;28.89;100922.22;5061369;28;20024;-71
2023/07/03 10:33:44;;;;;;;14.60;4.65;;;;;;;29.06;28.35;100917.75;5059480;28;20464;-70
2023/07/03 10:36:16;;;;;;;12.00;4.32;;;;;;;29.65;27.06;100920.13;5059318;28;20038;-71
2023/07/03 10:38:41;;;;;;;11.13;4.07;;;;;;;28.91;27.37;100916.94;5059801;28;20025;-71
2023/07/03 10:41:24;;;;;;;12.55;4.68;;;;;;;27.73;29.77;100918.88;5059374;28;20040;-73
2023/07/03 10:43:57;;;;;;;7.50;3.72;;;;;;;26.01;32.26;100926.59;5065798;28;20446;-72
2023/07/03 10:46:59;;;;;;;11.48;4.35;;;;;;;25.06;34.16;100926.38;5059459;28;20036;-72
2023/07/03 10:49:30;;;;;;;10.55;4.20;;;;;;;23.39;36.25;100925.25;5035689;28;20029;-71
2023/07/03 10:51:58;;;;;;;9.07;3.90;;;;;;;24.18;36.88;100931.47;5039633;28;20277;-70
2023/07/03 10:54:39;;;;;;;8.18;3.72;;;;;;;25.04;34.32;100923.84;5033717;28;20033;-72
2023/07/03 10:57:08;;;;;;;13.55;4.63;;;;;;;25.85;32.90;100918.47;5040948;28;20041;-71
2023/07/03 10:59:41;;;;;;;9.15;3.65;;;;;;;25.60;33.34;100918.53;5039625;28;20058;-72
2023/07/03 11:02:16;;;;;;;6.73;3.40;;;;;;;24.99;34.54;100918.03;5038704;28;20032;-71
2023/07/03 11:04:54;;;;;;;11.80;3.83;;;;;;;24.75;34.83;100910.72;5039532;28;20040;-72
2023/07/03 11:07:28;;;;;;;10.45;4.20;;;;;;;25.06;34.61;100927.22;5040018;28;20045;-71
2023/07/03 11:10:33;;;;;;;8.40;3.60;;;;;;;25.34;33.26;100918.75;5021522;28;20227;-71
2023/07/03 11:13:27;;;;;;;10.98;3.85;;;;;;;23.86;34.98;100927.56;5036275;28;20040;-71
2023/07/03 11:16:05;;;;;;;7.78;3.30;;;;;;;23.04;35.86;100939.75;5038711;28;20036;-70
2023/07/03 11:19:08;;;;;;;5.78;2.63;;;;;;;23.20;36.16;100931.75;5038367;28;20095;-71
2023/07/03 11:21:33;;;;;;;6.32;2.92;;;;;;;24.08;34.08;100931.63;5020758;28;20073;-71
2023/07/03 11:24:13;;;;;;;7.55;2.97;;;;;;;24.93;33.02;100926.06;5054149;28;20074;-72